Time;durP1;ratioP1;P1;durP2;ratioP2;P2;SDS_P1;SDS_P2;PMS_P1;PMS_P2;Temp;Humidity;BMP_temperature;BMP_pressure;BME280_temperature;BME280_humidity;BME280_pressure;Samples;Min_cycle;Max_cycle;Signal;HPM_P1;HPM_P2
2022/10/20 00:04:41;;;;;;;8.97;8.03;;;14.10;40.90;;;;;;10441581;28;20231;-70
2022/10/20 00:09:45;;;;;;;8.27;7.57;;;14.10;40.90;;;;;;10438487;28;20221;-70
2022/10/20 00:14:48;;;;;;;9.50;8.47;;;14.00;40.70;;;;;;10439964;28;20225;-70
2022/10/20 00:19:52;;;;;;;9.80;8.80;;;14.00;40.80;;;;;;10442438;28;20645;-69
2022/10/20 00:24:55;;;;;;;8.67;7.87;;;13.90;41.10;;;;;;10438908;28;20236;-69
2022/10/20 00:29:59;;;;;;;10.83;8.93;;;13.90;41.10;;;;;;10440129;28;20221;-69
2022/10/20 00:35:03;;;;;;;9.07;8.17;;;13.80;41.20;;;;;;10441433;28;20235;-70
2022/10/20 00:40:08;;;;;;;10.10;9.10;;;13.70;41.40;;;;;;10439843;28;20606;-69
2022/10/20 00:45:13;;;;;;;9.23;8.30;;;13.70;41.60;;;;;;10441251;28;20229;-69
2022/10/20 00:50:22;;;;;;;11.40;8.27;;;13.70;41.70;;;;;;10435825;28;20221;-69
2022/10/20 00:55:28;;;;;;;10.03;8.60;;;13.70;41.80;;;;;;10439438;28;20842;-69
2022/10/20 01:00:31;;;;;;;9.33;8.53;;;13.60;41.70;;;;;;10438766;28;20228;-74
2022/10/20 01:05:35;;;;;;;12.47;10.40;;;13.60;41.70;;;;;;10436745;28;20229;-74
2022/10/20 01:10:46;;;;;;;10.77;9.77;;;13.50;42.20;;;;;;10438156;28;20225;-74
2022/10/20 01:15:59;;;;;;;11.43;10.43;;;13.50;43.00;;;;;;10432083;28;20222;-74
2022/10/20 01:21:25;;;;;;;11.03;10.07;;;13.50;43.00;;;;;;10437256;28;20266;-71
2022/10/20 01:26:57;;;;;;;10.90;9.80;;;13.50;43.00;;;;;;10438583;28;20706;-70
2022/10/20 01:32:08;;;;;;;11.03;10.13;;;13.50;43.00;;;;;;10436529;28;20225;-69
2022/10/20 01:37:17;;;;;;;11.90;10.53;;;13.60;43.10;;;;;;10437188;28;20232;-70
2022/10/20 01:42:39;;;;;;;12.20;10.87;;;13.50;43.00;;;;;;10436744;28;20224;-70
2022/10/20 01:47:45;;;;;;;12.23;11.03;;;13.60;43.10;;;;;;10432776;28;20714;-70
2022/10/20 01:52:48;;;;;;;12.90;11.80;;;13.60;43.10;;;;;;10434186;28;20299;-70
2022/10/20 01:58:10;;;;;;;11.87;10.87;;;13.60;43.10;;;;;;10437085;28;20240;-70
2022/10/20 02:03:31;;;;;;;12.80;11.63;;;13.60;43.10;;;;;;10437372;28;20232;-70
2022/10/20 02:08:40;;;;;;;11.33;10.37;;;13.60;43.70;;;;;;10436403;28;20227;-70
2022/10/20 02:13:44;;;;;;;12.73;11.63;;;13.60;43.10;;;;;;10432852;28;20756;-70
2022/10/20 02:18:49;;;;;;;11.10;10.20;;;13.60;43.10;;;;;;10438223;28;20229;-70
2022/10/20 02:23:54;;;;;;;12.23;10.93;;;13.60;43.10;;;;;;10435024;28;20300;-70
2022/10/20 02:29:03;;;;;;;11.50;10.50;;;13.60;43.10;;;;;;10434948;28;20227;-70
2022/10/20 02:34:08;;;;;;;12.37;11.27;;;13.60;43.10;;;;;;10429355;28;20584;-70
2022/10/20 02:39:11;;;;;;;12.90;11.67;;;13.60;43.10;;;;;;10432973;28;20221;-70
2022/10/20 02:44:14;;;;;;;11.97;10.77;;;13.60;43.10;;;;;;10435780;28;20221;-70
2022/10/20 02:49:20;;;;;;;12.87;11.67;;;13.60;43.10;;;;;;10433296;28;20801;-70
2022/10/20 02:54:23;;;;;;;14.17;11.40;;;13.50;43.00;;;;;;10431586;28;20228;-70
2022/10/20 02:59:26;;;;;;;10.70;9.63;;;13.50;43.00;;;;;;10435674;28;20278;-70
2022/10/20 03:04:31;;;;;;;11.80;10.70;;;13.50;43.10;;;;;;10433073;28;20232;-69
2022/10/20 03:09:34;;;;;;;12.60;11.30;;;13.50;43.00;;;;;;10439883;28;20260;-70
2022/10/20 03:14:37;;;;;;;10.17;9.27;;;13.50;43.00;;;;;;10441790;28;20229;-70
2022/10/20 03:19:41;;;;;;;10.80;9.80;;;13.40;42.90;;;;;;10444003;28;20232;-70
2022/10/20 03:24:44;;;;;;;10.17;9.27;;;13.40;42.90;;;;;;10438437;28;20251;-69
2022/10/20 03:29:48;;;;;;;10.27;9.37;;;13.50;43.00;;;;;;10437670;28;20221;-70
2022/10/20 03:34:52;;;;;;;11.13;10.03;;;13.50;43.00;;;;;;10441720;28;20240;-70
2022/10/20 03:39:55;;;;;;;10.20;9.40;;;13.40;42.90;;;;;;10437012;28;20220;-70
2022/10/20 03:44:58;;;;;;;10.40;9.57;;;13.40;42.90;;;;;;10440544;28;20641;-70
2022/10/20 03:50:03;;;;;;;10.20;9.23;;;13.50;43.00;;;;;;10438115;28;20695;-70
2022/10/20 03:55:08;;;;;;;10.10;9.10;;;13.40;42.90;;;;;;10438788;28;20598;-70
2022/10/20 04:00:12;;;;;;;10.17;9.27;;;13.50;43.00;;;;;;10439520;28;20237;-70
2022/10/20 04:05:19;;;;;;;10.77;9.10;;;13.40;42.90;;;;;;10439513;28;21170;-70
2022/10/20 04:10:22;;;;;;;9.73;8.93;;;13.40;42.90;;;;;;10437475;28;20236;-70
2022/10/20 04:15:26;;;;;;;11.70;9.57;;;13.40;42.90;;;;;;10440833;28;20233;-70
2022/10/20 04:20:30;;;;;;;9.97;9.00;;;13.40;42.90;;;;;;10437115;28;20229;-70
2022/10/20 04:25:34;;;;;;;8.90;8.20;;;13.40;42.90;;;;;;10439868;28;20634;-70
2022/10/20 04:30:39;;;;;;;8.20;7.50;;;13.40;42.90;;;;;;10438364;28;20613;-69
2022/10/20 04:35:43;;;;;;;9.90;8.90;;;13.30;42.80;;;;;;10440843;28;20547;-70
2022/10/20 04:40:54;;;;;;;8.87;8.07;;;13.30;42.80;;;;;;10438885;28;20914;-69
2022/10/20 04:46:01;;;;;;;9.73;8.17;;;13.30;42.80;;;;;;10442327;28;20225;-69
2022/10/20 04:51:13;;;;;;;8.90;8.03;;;13.30;42.80;;;;;;10428795;28;20213;-70
2022/10/20 04:56:19;;;;;;;8.90;8.20;;;13.30;42.80;;;;;;10436794;28;20630;-70
2022/10/20 05:01:24;;;;;;;8.83;7.97;;;13.30;42.60;;;;;;10440636;28;20707;-69
2022/10/20 05:06:31;;;;;;;8.97;8.17;;;13.20;42.30;;;;;;10439892;28;20299;-72
2022/10/20 05:11:36;;;;;;;9.30;8.40;;;13.10;42.50;;;;;;10440920;28;20232;-69
2022/10/20 05:16:39;;;;;;;9.10;8.30;;;13.10;42.30;;;;;;10439448;28;20228;-69
2022/10/20 05:21:44;;;;;;;8.10;7.30;;;13.00;42.00;;;;;;10401037;28;20232;-69
2022/10/20 05:26:47;;;;;;;8.70;7.90;;;13.00;42.60;;;;;;10420878;28;20225;-69
2022/10/20 05:31:50;;;;;;;7.90;7.20;;;13.00;42.60;;;;;;10434192;28;20240;-69
2022/10/20 05:36:55;;;;;;;8.57;7.77;;;13.00;42.60;;;;;;10427912;28;20229;-69
2022/10/20 05:41:58;;;;;;;9.20;8.07;;;12.90;42.40;;;;;;10437047;28;20221;-69
2022/10/20 05:47:01;;;;;;;8.27;7.53;;;12.90;42.30;;;;;;10435465;28;20231;-69
2022/10/20 05:52:06;;;;;;;8.70;7.80;;;12.90;42.30;;;;;;10436794;28;20233;-69
2022/10/20 05:57:09;;;;;;;8.53;7.73;;;12.80;42.30;;;;;;10435339;28;20906;-70
2022/10/20 06:02:12;;;;;;;7.73;6.70;;;12.80;42.40;;;;;;10437879;28;20240;-70
2022/10/20 06:07:17;;;;;;;8.40;7.50;;;12.70;42.30;;;;;;10436058;28;20225;-69
2022/10/20 06:12:20;;;;;;;9.90;7.50;;;12.70;42.30;;;;;;10438058;28;20737;-69
2022/10/20 06:17:23;;;;;;;7.90;7.20;;;12.70;42.30;;;;;;10422753;28;20236;-70
2022/10/20 06:22:28;;;;;;;9.17;7.73;;;12.70;42.30;;;;;;10429977;28;20726;-70
2022/10/20 06:27:31;;;;;;;10.13;7.23;;;12.70;42.30;;;;;;10430817;28;21158;-69
2022/10/20 06:32:34;;;;;;;8.97;7.13;;;12.60;42.20;;;;;;10427642;28;20225;-69
2022/10/20 06:37:39;;;;;;;7.70;6.90;;;12.60;42.20;;;;;;10432745;28;20233;-69
2022/10/20 06:42:42;;;;;;;8.00;7.30;;;12.60;42.20;;;;;;10428416;28;20224;-69
2022/10/20 06:47:45;;;;;;;7.77;7.07;;;12.60;42.20;;;;;;10429469;28;20535;-69
2022/10/20 06:52:49;;;;;;;8.53;7.70;;;12.60;42.20;;;;;;10430116;28;20228;-69
2022/10/20 06:57:53;;;;;;;7.97;7.27;;;12.60;42.30;;;;;;10431297;28;20231;-69
2022/10/20 07:02:56;;;;;;;8.63;7.70;;;12.60;42.20;;;;;;10435365;28;20220;-69
2022/10/20 07:08:00;;;;;;;8.27;7.37;;;12.60;42.40;;;;;;10435713;28;20229;-69
2022/10/20 07:13:03;;;;;;;8.33;7.53;;;12.70;42.80;;;;;;10431076;28;20232;-70
2022/10/20 07:18:06;;;;;;;8.00;7.20;;;12.70;42.70;;;;;;10437658;28;20714;-69
2022/10/20 07:23:11;;;;;;;8.37;7.20;;;12.70;42.90;;;;;;10437977;28;20719;-69
2022/10/20 07:28:14;;;;;;;7.67;6.87;;;12.70;43.30;;;;;;10436563;28;20715;-69
2022/10/20 07:33:17;;;;;;;7.00;6.30;;;12.80;43.30;;;;;;10430129;28;21107;-68
2022/10/20 07:38:21;;;;;;;6.83;6.23;;;12.90;43.50;;;;;;10429667;28;20711;-69
2022/10/20 07:43:24;;;;;;;6.50;5.90;;;13.00;43.80;;;;;;10429599;28;20224;-69
2022/10/20 07:48:28;;;;;;;6.50;5.57;;;13.10;44.00;;;;;;10425235;28;20228;-69
2022/10/20 07:53:32;;;;;;;6.30;5.80;;;13.30;44.00;;;;;;10432008;28;20244;-68
2022/10/20 07:58:35;;;;;;;6.57;5.87;;;13.50;44.10;;;;;;10431887;28;20606;-69
2022/10/20 08:03:39;;;;;;;6.27;5.67;;;13.60;44.00;;;;;;10438053;28;20233;-69
2022/10/20 08:08:43;;;;;;;6.50;5.20;;;13.80;44.00;;;;;;10432578;28;20244;-68
2022/10/20 08:13:47;;;;;;;5.90;5.40;;;14.00;44.10;;;;;;10435276;28;20313;-69
2022/10/20 08:18:50;;;;;;;5.60;5.20;;;14.20;43.80;;;;;;10430449;28;20659;-69
2022/10/20 08:23:57;;;;;;;5.43;4.93;;;14.40;43.80;;;;;;10434711;28;20244;-69
2022/10/20 08:29:01;;;;;;;5.67;5.20;;;14.50;43.90;;;;;;10433337;28;20234;-69
2022/10/20 08:34:04;;;;;;;5.43;4.93;;;14.70;44.10;;;;;;10429480;28;20229;-69
2022/10/20 08:39:09;;;;;;;5.50;5.00;;;14.80;44.00;;;;;;10439312;28;20228;-69
2022/10/20 08:44:17;;;;;;;6.03;5.37;;;14.90;43.90;;;;;;10439361;28;20233;-69
2022/10/20 08:49:23;;;;;;;5.63;5.13;;;15.00;43.30;;;;;;10438968;28;20224;-69
2022/10/20 08:54:27;;;;;;;5.17;4.67;;;15.20;43.50;;;;;;10442027;28;20259;-69
2022/10/20 08:59:35;;;;;;;6.03;4.90;;;15.30;43.50;;;;;;10439145;28;20229;-69
2022/10/20 09:04:46;;;;;;;5.30;4.80;;;15.40;43.30;;;;;;10437022;28;20261;-69
2022/10/20 09:09:51;;;;;;;5.73;5.10;;;15.60;43.40;;;;;;10434458;28;20749;-69
2022/10/20 09:14:54;;;;;;;5.40;4.90;;;15.80;43.30;;;;;;10434343;28;20714;-68
2022/10/20 09:20:00;;;;;;;5.30;4.77;;;15.90;43.10;;;;;;10440879;28;20672;-69
2022/10/20 09:25:05;;;;;;;5.00;4.57;;;16.00;42.70;;;;;;10440437;28;20233;-69
2022/10/20 09:30:17;;;;;;;4.97;4.40;;;16.10;43.00;;;;;;10438583;28;20224;-69
2022/10/20 09:35:24;;;;;;;4.93;4.53;;;16.30;42.80;;;;;;10437515;28;20236;-69
2022/10/20 09:40:29;;;;;;;5.23;4.77;;;16.50;42.70;;;;;;10439522;28;20221;-69
2022/10/20 09:45:34;;;;;;;5.90;4.40;;;16.60;42.90;;;;;;10434646;28;20362;-69
2022/10/20 09:50:40;;;;;;;4.87;4.40;;;16.80;43.10;;;;;;10431245;28;20270;-69
2022/10/20 09:55:48;;;;;;;5.60;4.70;;;17.00;42.70;;;;;;10437465;28;20534;-69
2022/10/20 10:01:01;;;;;;;4.70;4.30;;;17.20;42.20;;;;;;10436841;28;20274;-69
2022/10/20 10:06:20;;;;;;;6.23;4.30;;;17.40;42.30;;;;;;10434040;28;20675;-69
2022/10/20 10:11:31;;;;;;;5.13;4.53;;;17.60;41.80;;;;;;10434057;28;20231;-68
2022/10/20 10:16:44;;;;;;;4.90;4.40;;;17.70;41.70;;;;;;10423173;28;20255;-69
2022/10/20 10:21:51;;;;;;;5.97;4.70;;;17.80;41.60;;;;;;10422383;28;20232;-69
2022/10/20 10:26:56;;;;;;;5.33;4.30;;;17.90;42.10;;;;;;10423181;28;20711;-68
2022/10/20 10:32:01;;;;;;;5.27;4.40;;;18.00;41.50;;;;;;10421117;28;20268;-68
2022/10/20 10:37:04;;;;;;;4.30;3.87;;;18.00;41.60;;;;;;10426622;28;20275;-69
2022/10/20 10:42:43;;;;;;;4.50;4.10;;;18.00;41.90;;;;;;10428857;28;20237;-68
2022/10/20 10:48:10;;;;;;;4.40;4.00;;;18.10;41.40;;;;;;10426420;28;21119;-68
2022/10/20 10:53:23;;;;;;;4.20;3.80;;;18.20;41.10;;;;;;10428949;28;20578;-68
2022/10/20 10:58:38;;;;;;;4.53;4.13;;;18.30;41.20;;;;;;10424255;28;20483;-68
2022/10/20 11:03:55;;;;;;;6.70;4.10;;;18.50;41.20;;;;;;10429471;28;20241;-68
2022/10/20 11:09:20;;;;;;;4.00;3.60;;;18.60;40.70;;;;;;10424924;28;20644;-68
2022/10/20 11:14:40;;;;;;;3.67;3.37;;;18.70;40.80;;;;;;10427895;28;20221;-68
2022/10/20 11:19:56;;;;;;;4.20;3.80;;;18.80;40.60;;;;;;10424598;28;20228;-68
2022/10/20 11:25:07;;;;;;;4.07;3.57;;;18.80;40.20;;;;;;10421861;28;20236;-68
2022/10/20 11:30:18;;;;;;;3.83;3.53;;;18.90;40.40;;;;;;10432302;28;20691;-69
2022/10/20 11:35:29;;;;;;;4.03;3.70;;;18.90;40.30;;;;;;10430757;28;20229;-69
2022/10/20 11:40:38;;;;;;;3.80;3.50;;;19.00;40.60;;;;;;10438604;28;20237;-68
2022/10/20 11:45:51;;;;;;;4.07;3.73;;;19.00;40.40;;;;;;10437312;28;20225;-68
2022/10/20 11:51:10;;;;;;;4.30;3.80;;;19.10;40.10;;;;;;10441924;28;20224;-69
2022/10/20 11:56:25;;;;;;;5.27;3.80;;;19.10;40.00;;;;;;10441143;28;20228;-69
2022/10/20 12:01:35;;;;;;;4.07;3.70;;;19.20;39.70;;;;;;10437975;28;20228;-69
2022/10/20 12:07:05;;;;;;;3.50;3.20;;;19.20;39.80;;;;;;10438500;28;20229;-69
2022/10/20 12:12:14;;;;;;;3.57;3.17;;;19.20;39.90;;;;;;10437529;28;20686;-69
2022/10/20 12:17:29;;;;;;;3.73;3.37;;;19.20;39.80;;;;;;10442580;28;20467;-69
2022/10/20 12:22:42;;;;;;;4.97;3.70;;;19.20;39.20;;;;;;10440928;28;20259;-69
2022/10/20 12:27:45;;;;;;;4.70;3.47;;;19.20;39.40;;;;;;10439425;28;20702;-69
2022/10/20 12:33:09;;;;;;;3.70;3.40;;;19.20;40.30;;;;;;10439670;28;20753;-69
2022/10/20 12:38:17;;;;;;;3.30;3.00;;;19.30;39.60;;;;;;10439069;28;20225;-69
2022/10/20 12:43:50;;;;;;;3.33;3.03;;;19.30;39.80;;;;;;10440148;28;20679;-69
2022/10/20 12:48:58;;;;;;;5.13;3.50;;;19.30;39.60;;;;;;10439658;28;20228;-69
2022/10/20 12:54:07;;;;;;;7.27;4.50;;;19.40;39.90;;;;;;10442280;28;20229;-70
2022/10/20 12:59:39;;;;;;;5.17;4.67;;;19.40;39.90;;;;;;10440349;28;20233;-69
2022/10/20 13:04:58;;;;;;;5.83;4.53;;;19.50;39.60;;;;;;10438262;28;20225;-69
2022/10/20 13:10:01;;;;;;;6.83;5.30;;;19.60;39.50;;;;;;10439766;28;20221;-69
2022/10/20 13:15:13;;;;;;;4.80;4.30;;;19.70;40.10;;;;;;10437021;28;20316;-69
2022/10/20 13:20:25;;;;;;;4.67;4.03;;;19.70;39.10;;;;;;10440435;28;20229;-69
2022/10/20 13:25:38;;;;;;;4.43;3.67;;;19.80;39.30;;;;;;10436680;28;20248;-69
2022/10/20 13:30:59;;;;;;;4.20;3.80;;;19.80;39.00;;;;;;10439157;28;20316;-69
2022/10/20 13:36:09;;;;;;;3.60;3.30;;;19.90;39.10;;;;;;10435702;28;20726;-69
2022/10/20 13:41:19;;;;;;;3.10;2.90;;;20.00;39.10;;;;;;10439299;28;20225;-69
2022/10/20 13:46:40;;;;;;;4.70;3.00;;;20.00;38.70;;;;;;10434424;28;20259;-69
2022/10/20 13:51:49;;;;;;;3.10;2.57;;;20.00;38.70;;;;;;10438104;28;20229;-69
2022/10/20 13:56:52;;;;;;;5.23;2.83;;;20.00;38.60;;;;;;10439178;28;20267;-69
2022/10/20 14:01:58;;;;;;;3.70;2.77;;;20.00;39.40;;;;;;10437270;28;20221;-67
2022/10/20 14:07:11;;;;;;;3.20;2.80;;;20.00;39.00;;;;;;10436690;28;20229;-70
2022/10/20 14:12:22;;;;;;;3.73;2.90;;;20.00;38.90;;;;;;10435602;28;20221;-68
2022/10/20 14:17:26;;;;;;;3.20;2.90;;;20.00;38.70;;;;;;10435216;28;20643;-68
2022/10/20 14:22:32;;;;;;;3.20;2.90;;;20.00;39.30;;;;;;10438020;28;20241;-68
2022/10/20 14:27:36;;;;;;;3.07;2.80;;;20.00;38.90;;;;;;10435596;28;20330;-68
2022/10/20 14:32:40;;;;;;;2.97;2.70;;;20.00;39.20;;;;;;10438306;28;20217;-68
2022/10/20 14:37:52;;;;;;;3.60;3.00;;;20.00;39.40;;;;;;10437430;28;20640;-69
2022/10/20 14:43:04;;;;;;;3.97;3.00;;;20.00;38.70;;;;;;10436017;28;20233;-69
2022/10/20 14:48:15;;;;;;;2.80;2.60;;;20.00;38.40;;;;;;10434457;28;20227;-69
2022/10/20 14:53:31;;;;;;;3.33;2.60;;;20.00;39.10;;;;;;10434263;28;20240;-69
2022/10/20 14:58:37;;;;;;;2.63;2.43;;;20.10;39.00;;;;;;10436005;28;20228;-69
2022/10/20 15:03:40;;;;;;;2.87;2.40;;;20.10;39.30;;;;;;10434550;28;20228;-69
2022/10/20 15:08:56;;;;;;;2.70;2.50;;;20.10;39.60;;;;;;10440564;28;20229;-69
2022/10/20 15:14:00;;;;;;;4.03;2.83;;;20.20;39.30;;;;;;10443325;28;20321;-69
2022/10/20 15:19:29;;;;;;;4.53;2.77;;;20.20;39.60;;;;;;10442523;28;20220;-69
2022/10/20 15:24:34;;;;;;;3.70;3.40;;;20.20;39.00;;;;;;10439161;28;20225;-69
2022/10/20 15:29:37;;;;;;;5.70;3.07;;;20.20;39.40;;;;;;10442584;28;20347;-69
2022/10/20 15:34:40;;;;;;;3.73;3.43;;;20.20;39.50;;;;;;10442569;28;20224;-69
2022/10/20 15:39:45;;;;;;;4.83;4.10;;;20.10;39.40;;;;;;10438388;28;20540;-66
2022/10/20 15:44:48;;;;;;;3.93;3.50;;;20.10;39.40;;;;;;10436601;28;20233;-70
2022/10/20 15:49:51;;;;;;;4.80;3.20;;;20.10;39.50;;;;;;10438498;28;20612;-70
2022/10/20 15:54:56;;;;;;;2.90;2.70;;;20.00;39.10;;;;;;10443831;28;20225;-70
2022/10/20 15:59:59;;;;;;;4.57;3.10;;;20.00;39.10;;;;;;10442453;28;20232;-70
2022/10/20 16:05:02;;;;;;;2.73;2.53;;;19.90;39.10;;;;;;10441361;28;20233;-70
2022/10/20 16:10:09;;;;;;;3.40;2.90;;;19.90;39.30;;;;;;10442287;28;20757;-71
2022/10/20 16:15:13;;;;;;;5.43;3.20;;;19.80;38.80;;;;;;10441853;28;20722;-70
2022/10/20 16:20:16;;;;;;;4.30;3.20;;;19.70;39.20;;;;;;10445169;28;20239;-70
2022/10/20 16:25:21;;;;;;;3.30;3.00;;;19.70;39.20;;;;;;10438602;28;20286;-70
2022/10/20 16:30:24;;;;;;;3.70;3.40;;;19.70;39.30;;;;;;10439316;28;20228;-71
2022/10/20 16:35:27;;;;;;;4.97;4.30;;;19.60;39.30;;;;;;10441132;28;20229;-70
2022/10/20 16:40:31;;;;;;;5.63;5.03;;;19.60;39.40;;;;;;10438005;28;20221;-71
2022/10/20 16:45:39;;;;;;;6.57;4.67;;;19.60;39.30;;;;;;10439764;28;20232;-70
2022/10/20 16:50:42;;;;;;;4.73;4.33;;;19.60;39.00;;;;;;10442916;28;20236;-70
2022/10/20 16:55:54;;;;;;;5.73;4.07;;;19.50;39.10;;;;;;10441771;28;20225;-70
2022/10/20 17:00:59;;;;;;;4.60;3.67;;;19.50;38.60;;;;;;10441043;28;20808;-70
2022/10/20 17:06:05;;;;;;;4.30;3.87;;;19.40;38.90;;;;;;10438674;28;20722;-71
2022/10/20 17:11:11;;;;;;;4.10;3.50;;;19.40;39.00;;;;;;10435724;28;20618;-70
2022/10/20 17:16:16;;;;;;;3.70;3.40;;;19.30;38.80;;;;;;10439912;28;20233;-70
2022/10/20 17:21:20;;;;;;;4.00;3.43;;;19.30;39.00;;;;;;10437543;28;20287;-70
2022/10/20 17:26:26;;;;;;;3.87;3.50;;;19.30;39.10;;;;;;10440294;28;20233;-70
2022/10/20 17:31:30;;;;;;;7.07;4.00;;;19.20;39.60;;;;;;10436882;28;20225;-71
2022/10/20 17:36:33;;;;;;;4.47;4.07;;;19.20;38.80;;;;;;10435763;28;20240;-70
2022/10/20 17:41:38;;;;;;;4.30;3.90;;;19.20;38.60;;;;;;10439367;28;20232;-70
2022/10/20 17:46:42;;;;;;;5.93;4.43;;;19.10;38.60;;;;;;10437957;28;20233;-70
2022/10/20 17:51:45;;;;;;;5.00;4.50;;;19.00;38.90;;;;;;10436931;28;20665;-71
2022/10/20 17:56:51;;;;;;;4.70;4.20;;;19.00;38.90;;;;;;10439448;28;20225;-71
2022/10/20 18:01:54;;;;;;;4.43;4.03;;;19.00;38.80;;;;;;10423146;28;20227;-70
2022/10/20 18:06:57;;;;;;;5.00;4.60;;;18.90;38.60;;;;;;10445074;28;20212;-70
2022/10/20 18:12:02;;;;;;;5.37;4.87;;;18.90;38.60;;;;;;10427371;28;20821;-70
2022/10/20 18:17:05;;;;;;;4.07;3.70;;;18.80;38.30;;;;;;10426768;28;20753;-71
2022/10/20 18:22:08;;;;;;;4.23;3.83;;;18.70;38.60;;;;;;10441191;22;20794;-71
2022/10/20 18:27:15;;;;;;;5.43;4.70;;;18.70;38.90;;;;;;10331364;28;20230;-70
2022/10/20 18:32:21;;;;;;;5.43;4.93;;;18.70;38.80;;;;;;10331327;28;20238;-70
2022/10/20 18:37:24;;;;;;;4.73;4.30;;;18.70;38.80;;;;;;10329226;28;20237;-71
2022/10/20 18:42:28;;;;;;;5.67;4.40;;;18.70;38.90;;;;;;10331949;28;20233;-71
2022/10/20 18:47:32;;;;;;;5.77;4.70;;;18.70;38.90;;;;;;10331785;28;20226;-71
2022/10/20 18:52:38;;;;;;;5.70;5.20;;;18.60;38.90;;;;;;10337190;28;20244;-70
2022/10/20 18:57:43;;;;;;;5.13;4.30;;;18.60;38.90;;;;;;10349711;28;20229;-70
2022/10/20 19:02:51;;;;;;;5.00;4.60;;;18.60;38.90;;;;;;10330498;28;20238;-70
2022/10/20 19:08:00;;;;;;;4.77;4.27;;;18.50;38.70;;;;;;10336977;28;20230;-70
2022/10/20 19:13:07;;;;;;;5.83;4.30;;;18.50;38.90;;;;;;10346283;28;20314;-70
2022/10/20 19:18:10;;;;;;;4.50;3.63;;;18.40;38.70;;;;;;10336010;28;20242;-70
2022/10/20 19:23:13;;;;;;;4.73;3.63;;;18.50;38.90;;;;;;10432740;23;20601;-72
2022/10/20 19:28:18;;;;;;;4.37;3.67;;;18.40;38.90;;;;;;10378936;28;20218;-72
2022/10/20 19:33:21;;;;;;;4.00;3.23;;;18.40;38.90;;;;;;10378227;28;20241;-72
2022/10/20 19:38:25;;;;;;;4.40;3.80;;;18.40;39.00;;;;;;10376146;28;20648;-72
2022/10/20 19:43:29;;;;;;;4.07;3.77;;;18.30;39.00;;;;;;10378247;28;20222;-72
2022/10/20 19:48:33;;;;;;;6.63;4.00;;;18.30;38.90;;;;;;10382066;28;20222;-72
2022/10/20 19:53:37;;;;;;;3.83;3.53;;;18.20;38.80;;;;;;10384000;28;20280;-73
2022/10/20 19:58:42;;;;;;;4.97;4.20;;;18.20;38.80;;;;;;10387266;28;20281;-73
2022/10/20 20:03:48;;;;;;;4.70;4.10;;;18.10;38.80;;;;;;10389691;28;20236;-73
2022/10/20 20:08:57;;;;;;;6.43;3.90;;;18.00;39.00;;;;;;10380601;28;20237;-73
2022/10/20 20:14:05;;;;;;;4.50;3.87;;;17.90;38.80;;;;;;10388348;28;20477;-73
2022/10/20 20:19:08;;;;;;;5.00;4.43;;;17.80;38.90;;;;;;10384364;28;20226;-72
2022/10/20 20:24:12;;;;;;;4.43;4.03;;;17.80;39.00;;;;;;10381617;28;20222;-73
2022/10/20 20:29:17;;;;;;;4.23;3.83;;;17.70;39.10;;;;;;10374415;28;20309;-73
2022/10/20 20:34:20;;;;;;;4.07;3.77;;;17.70;39.20;;;;;;10373032;28;20234;-72
2022/10/20 20:39:24;;;;;;;3.87;3.57;;;17.70;39.30;;;;;;10380150;28;20229;-73
2022/10/20 20:44:36;;;;;;;4.33;3.93;;;17.60;39.30;;;;;;10376624;28;20230;-72
2022/10/20 20:49:39;;;;;;;4.93;4.03;;;17.50;39.10;;;;;;10372586;28;20598;-73
2022/10/20 20:54:42;;;;;;;4.83;3.70;;;17.40;38.80;;;;;;10373945;28;20241;-73
2022/10/20 20:59:47;;;;;;;6.70;4.13;;;17.20;39.00;;;;;;10376337;28;20227;-73
2022/10/20 21:04:50;;;;;;;4.90;3.80;;;17.00;39.20;;;;;;10372680;28;20237;-73
2022/10/20 21:09:53;;;;;;;4.73;3.97;;;17.00;39.30;;;;;;10375204;28;20230;-73
2022/10/20 21:14:58;;;;;;;5.27;4.10;;;16.90;39.50;;;;;;10375243;28;20238;-73
2022/10/20 21:20:01;;;;;;;3.97;3.67;;;16.80;39.80;;;;;;10375124;28;20226;-73
2022/10/20 21:25:05;;;;;;;4.30;3.57;;;16.80;40.00;;;;;;10376849;28;20696;-72
2022/10/20 21:30:10;;;;;;;4.00;3.60;;;16.70;40.70;;;;;;10372716;28;20232;-72
2022/10/20 21:35:13;;;;;;;4.00;3.60;;;16.70;40.30;;;;;;10375706;28;20283;-73
2022/10/20 21:40:17;;;;;;;3.93;3.63;;;16.80;40.40;;;;;;10374509;28;20233;-73
2022/10/20 21:45:21;;;;;;;4.00;3.67;;;16.80;40.40;;;;;;10377543;28;20222;-73
2022/10/20 21:50:24;;;;;;;4.63;3.57;;;16.90;40.60;;;;;;10371638;28;20242;-73
2022/10/20 21:55:27;;;;;;;5.53;3.90;;;16.90;40.60;;;;;;10376940;28;20229;-73
2022/10/20 22:00:32;;;;;;;4.00;3.70;;;16.90;40.60;;;;;;10375842;28;20672;-73
2022/10/20 22:05:47;;;;;;;3.67;3.37;;;16.90;40.80;;;;;;10372895;28;20234;-72
2022/10/20 22:10:55;;;;;;;4.20;3.77;;;17.00;41.00;;;;;;10370826;28;20329;-73
2022/10/20 22:16:00;;;;;;;4.20;3.47;;;17.00;40.80;;;;;;10376975;28;20232;-73
2022/10/20 22:21:05;;;;;;;5.20;3.70;;;17.00;40.90;;;;;;10377551;28;20226;-72
2022/10/20 22:26:14;;;;;;;4.40;4.00;;;17.00;40.80;;;;;;10368848;28;21082;-72
2022/10/20 22:31:19;;;;;;;4.50;4.10;;;17.00;40.70;;;;;;10375104;28;20238;-72
2022/10/20 22:36:22;;;;;;;4.30;3.90;;;16.90;40.90;;;;;;10365498;28;20243;-73
2022/10/20 22:41:25;;;;;;;4.47;4.07;;;16.90;40.90;;;;;;10373780;28;20221;-73
2022/10/20 22:46:30;;;;;;;4.60;4.00;;;16.90;40.90;;;;;;10375524;28;20314;-73
2022/10/20 22:51:33;;;;;;;5.40;4.03;;;16.80;41.10;;;;;;10367973;28;20230;-72
2022/10/20 22:56:36;;;;;;;4.03;3.73;;;16.90;41.10;;;;;;10373394;28;20237;-73
2022/10/20 23:01:41;;;;;;;5.07;4.10;;;16.90;41.10;;;;;;10376164;28;20225;-72
2022/10/20 23:06:44;;;;;;;4.70;3.80;;;16.90;41.30;;;;;;10372052;28;20245;-73
2022/10/20 23:11:50;;;;;;;5.90;4.43;;;16.90;41.10;;;;;;10368497;28;20633;-73
2022/10/20 23:16:54;;;;;;;5.23;4.60;;;16.90;41.30;;;;;;10375114;28;20236;-73
2022/10/20 23:21:58;;;;;;;4.60;4.30;;;16.90;41.10;;;;;;10372212;28;20230;-73
2022/10/20 23:27:01;;;;;;;4.43;4.13;;;16.80;40.90;;;;;;10373307;28;20239;-73
2022/10/20 23:32:06;;;;;;;5.47;5.07;;;16.80;41.00;;;;;;10373076;28;20233;-72
2022/10/20 23:37:09;;;;;;;5.33;4.83;;;16.80;41.10;;;;;;10377697;28;20226;-72
2022/10/20 23:42:12;;;;;;;8.00;5.20;;;16.80;40.90;;;;;;10380775;28;20233;-73
2022/10/20 23:47:16;;;;;;;5.80;5.30;;;16.70;41.00;;;;;;10374741;28;20234;-73
2022/10/20 23:52:19;;;;;;;5.63;5.13;;;16.70;41.10;;;;;;10378745;28;20233;-73
2022/10/20 23:57:23;;;;;;;5.87;5.30;;;16.70;41.00;;;;;;10380108;28;20238;-73
